DRZA/AJY METAR and TAF weather

Enter ICAO airport designator
Station Type Date Time Source
DRZA METAR 2019/10/16 18:00 UTC NOAA

DRZA 161800Z 14004KT CAVOK 36/09 Q1011


Station Type Date Time Source
DRZA Decoded METAR 2019/10/16 18:00 UTC NOAA

Agadez, Niger (DRZA) 16-58N 007-59E 502M
Oct 16, 2019 - 02:00 PM EDT / 2019.10.16 1800 UTC
Wind: from the SE (140 degrees) at 5 MPH (4 KT):0
Visibility: greater than 7 mile(s):0
Temperature: 96 F (36 C)
Dew Point: 48 F (9 C)
Relative Humidity: 19%
Pressure (altimeter): 29.85 in. Hg (1011 hPa)
ob: DRZA 161800Z 14004KT CAVOK 36/09 Q1011
cycle: 18

Station Type Date Time Source
DRZA TAF 2019/10/16 18:21 UTC NOAA

TAF DRZA 161700Z 1618/1718 10015KT 8000 NSC

Example: see airport list